createdAt,value
2023-04-16T00:00:00.085Z, 97.9
2023-04-16T00:02:00.144Z, 97.9
2023-04-16T00:04:00.424Z, 97.9
2023-04-16T00:06:00.053Z, 97.8
2023-04-16T00:08:00.037Z, 98.1
2023-04-16T00:10:00.081Z, 98.5
2023-04-16T00:12:00.051Z, 98.4
2023-04-16T00:14:00.045Z, 98.5
2023-04-16T00:16:00.076Z, 98.5
2023-04-16T00:18:00.087Z, 98.4
2023-04-16T00:20:00.063Z, 98.5
2023-04-16T00:22:00.050Z, 98.8
2023-04-16T00:24:00.073Z, 99.1
2023-04-16T00:26:00.277Z, 99.1
2023-04-16T00:28:00.088Z, 99.4
2023-04-16T00:30:00.105Z, 99.3
2023-04-16T00:32:00.136Z, 99.3
2023-04-16T00:34:00.112Z, 99.4
2023-04-16T00:36:00.130Z, 99.6
2023-04-16T00:38:00.097Z, 100
2023-04-16T00:40:00.112Z, 100
2023-04-16T00:42:00.090Z, 99.8
2023-04-16T00:44:00.089Z, 100
2023-04-16T00:46:00.190Z, 100
2023-04-16T00:48:00.678Z, 100
2023-04-16T00:50:00.135Z, 99.8
2023-04-16T00:52:00.137Z, 99.7
2023-04-16T00:54:00.138Z, 99.8
2023-04-16T00:56:00.095Z, 99.7
2023-04-16T00:58:00.116Z, 99.3
2023-04-16T01:00:00.061Z, 99.4
2023-04-16T01:02:00.224Z, 99.4
2023-04-16T01:04:00.211Z, 99.6
2023-04-16T01:06:00.069Z, 100
2023-04-16T01:08:00.062Z, 99.9
2023-04-16T01:10:00.087Z, 100
2023-04-16T01:12:00.056Z, 99.8
2023-04-16T01:14:00.049Z, 99.8
2023-04-16T01:16:00.139Z, 100
2023-04-16T01:18:00.083Z, 100
2023-04-16T01:20:00.141Z, 100
2023-04-16T01:22:00.042Z, 100
2023-04-16T01:24:00.031Z, 100
2023-04-16T01:26:00.126Z, 100
2023-04-16T01:28:00.139Z, 100
2023-04-16T01:30:00.116Z, 100
2023-04-16T01:32:00.128Z, 100
2023-04-16T01:34:00.117Z, 100
2023-04-16T01:36:00.146Z, 100
2023-04-16T01:38:00.122Z, 100
2023-04-16T01:40:00.135Z, 100
2023-04-16T01:42:00.117Z, 100
2023-04-16T01:44:00.121Z, 100
2023-04-16T01:46:00.123Z, 100
2023-04-16T01:48:00.156Z, 100
2023-04-16T01:50:00.163Z, 100
2023-04-16T01:52:00.157Z, 100
2023-04-16T01:54:00.133Z, 100
2023-04-16T01:56:00.063Z, 100
2023-04-16T01:58:00.057Z, 100
2023-04-16T02:00:00.078Z, 100
2023-04-16T02:02:00.106Z, 100
2023-04-16T02:04:00.324Z, 100
2023-04-16T02:06:00.053Z, 100
2023-04-16T02:08:00.037Z, 100
2023-04-16T02:10:00.050Z, 100
2023-04-16T02:12:00.130Z, 100
2023-04-16T02:14:00.082Z, 100
2023-04-16T02:16:00.079Z, 100
2023-04-16T02:18:00.126Z, 100
2023-04-16T02:20:00.082Z, 100
2023-04-16T02:22:00.069Z, 100
2023-04-16T02:24:00.078Z, 100
2023-04-16T02:26:00.080Z, 100
2023-04-16T02:28:00.072Z, 100
2023-04-16T02:30:00.143Z, 100
2023-04-16T02:32:00.168Z, 100
2023-04-16T02:34:00.113Z, 100
2023-04-16T02:36:00.105Z, 100
2023-04-16T02:38:00.108Z, 100
2023-04-16T02:40:00.142Z, 100
2023-04-16T02:42:00.144Z, 100
2023-04-16T02:44:00.130Z, 100
2023-04-16T02:46:00.146Z, 100
2023-04-16T02:48:00.214Z, 100
2023-04-16T02:50:00.121Z, 100
2023-04-16T02:52:00.112Z, 100
2023-04-16T02:54:00.129Z, 100
2023-04-16T02:56:00.073Z, 100
2023-04-16T02:58:00.047Z, 100
2023-04-16T03:00:00.054Z, 100
2023-04-16T03:02:00.077Z, 100
2023-04-16T03:04:00.219Z, 100
2023-04-16T03:06:00.044Z, 100
2023-04-16T03:08:00.021Z, 100
2023-04-16T03:10:00.026Z, 100
2023-04-16T03:12:00.047Z, 100
2023-04-16T03:14:00.050Z, 100
2023-04-16T03:16:00.175Z, 100
2023-04-16T03:18:00.132Z, 100
2023-04-16T03:20:00.074Z, 100
2023-04-16T03:22:00.049Z, 100
2023-04-16T03:24:00.065Z, 100
2023-04-16T03:26:00.095Z, 100
2023-04-16T03:28:00.124Z, 100
2023-04-16T03:30:00.131Z, 100
2023-04-16T03:32:00.105Z, 100
2023-04-16T03:34:00.091Z, 100
2023-04-16T03:36:00.103Z, 100
2023-04-16T03:38:00.091Z, 100
2023-04-16T03:40:00.136Z, 100
2023-04-16T03:42:00.117Z, 100
2023-04-16T03:44:00.134Z, 100
2023-04-16T03:46:00.181Z, 100
2023-04-16T03:48:00.100Z, 100
2023-04-16T03:50:00.133Z, 100
2023-04-16T03:52:00.119Z, 100
2023-04-16T03:54:00.141Z, 100
2023-04-16T03:56:00.058Z, 100
2023-04-16T03:58:00.047Z, 100
2023-04-16T04:00:00.100Z, 100
2023-04-16T04:02:00.099Z, 100
2023-04-16T04:04:00.145Z, 100
2023-04-16T04:06:00.040Z, 100
2023-04-16T04:08:00.042Z, 100
2023-04-16T04:10:00.032Z, 100
2023-04-16T04:12:00.043Z, 100
2023-04-16T04:14:00.056Z, 100
2023-04-16T04:16:00.129Z, 100
2023-04-16T04:18:00.062Z, 100
2023-04-16T04:20:01.647Z, 100
2023-04-16T04:22:00.044Z, 100
2023-04-16T04:24:00.114Z, 100
2023-04-16T04:26:00.161Z, 100
2023-04-16T04:28:00.093Z, 100
2023-04-16T04:30:00.107Z, 100
2023-04-16T04:32:00.141Z, 100
2023-04-16T04:34:00.089Z, 100
2023-04-16T04:36:00.117Z, 100
2023-04-16T04:38:00.146Z, 100
2023-04-16T04:40:00.158Z, 100
2023-04-16T04:42:00.129Z, 100
2023-04-16T04:44:00.131Z, 100
2023-04-16T04:46:00.157Z, 100
2023-04-16T04:48:00.180Z, 100
2023-04-16T04:50:00.157Z, 100
2023-04-16T04:52:00.132Z, 100
2023-04-16T04:54:00.161Z, 100
2023-04-16T04:56:11.140Z, 100
2023-04-16T04:58:00.044Z, 100
2023-04-16T05:00:00.057Z, 100
2023-04-16T05:02:00.082Z, 100
2023-04-16T05:04:00.152Z, 100
2023-04-16T05:06:00.037Z, 100
2023-04-16T05:08:00.034Z, 100
2023-04-16T05:10:00.016Z, 100
2023-04-16T05:12:00.054Z, 100
2023-04-16T05:14:00.053Z, 100
2023-04-16T05:16:00.067Z, 100
2023-04-16T05:18:00.325Z, 100
2023-04-16T05:20:00.060Z, 100
2023-04-16T05:22:00.057Z, 100
2023-04-16T05:24:00.090Z, 100
2023-04-16T05:26:00.119Z, 100
2023-04-16T05:28:00.092Z, 100
2023-04-16T05:30:00.131Z, 100
2023-04-16T05:32:00.107Z, 100
2023-04-16T05:34:00.102Z, 100
2023-04-16T05:36:00.159Z, 100
2023-04-16T05:38:00.102Z, 100
2023-04-16T05:40:00.143Z, 100
2023-04-16T05:42:00.105Z, 100
2023-04-16T05:44:00.115Z, 100
2023-04-16T05:46:00.193Z, 100
2023-04-16T05:48:00.190Z, 100
2023-04-16T05:50:00.145Z, 100
2023-04-16T05:52:00.106Z, 100
2023-04-16T05:54:00.175Z, 100
2023-04-16T05:56:00.115Z, 100
2023-04-16T05:58:00.106Z, 99.9
2023-04-16T06:00:00.122Z, 100
2023-04-16T06:02:00.216Z, 100
2023-04-16T06:04:00.212Z, 100
2023-04-16T06:06:00.279Z, 100
2023-04-16T06:08:00.106Z, 100
2023-04-16T06:10:00.105Z, 100
2023-04-16T06:12:00.136Z, 100
2023-04-16T06:14:00.059Z, 100
2023-04-16T06:16:00.113Z, 100
2023-04-16T06:18:00.993Z, 100
2023-04-16T06:20:00.062Z, 100
2023-04-16T06:22:00.052Z, 100
2023-04-16T06:24:00.053Z, 100
2023-04-16T06:26:00.106Z, 100
2023-04-16T06:28:00.111Z, 100
2023-04-16T06:30:00.141Z, 100
2023-04-16T06:32:00.111Z, 100
2023-04-16T06:34:00.134Z, 100
2023-04-16T06:36:00.108Z, 100
2023-04-16T06:38:00.147Z, 100
2023-04-16T06:40:00.171Z, 100
2023-04-16T06:42:00.115Z, 100
2023-04-16T06:44:00.125Z, 100
2023-04-16T06:46:00.103Z, 100
2023-04-16T06:48:00.272Z, 100
2023-04-16T06:50:00.143Z, 100
2023-04-16T06:52:00.161Z, 100
2023-04-16T06:54:00.147Z, 100
2023-04-16T06:56:00.055Z, 100
2023-04-16T06:58:00.048Z, 100
2023-04-16T07:00:00.066Z, 100
2023-04-16T07:02:00.141Z, 100
2023-04-16T07:04:00.139Z, 100
2023-04-16T07:06:00.098Z, 100
2023-04-16T07:08:00.048Z, 100
2023-04-16T07:10:00.052Z, 100
2023-04-16T07:12:00.056Z, 100
2023-04-16T07:14:00.052Z, 100
2023-04-16T07:16:00.114Z, 100
2023-04-16T07:18:00.166Z, 100
2023-04-16T07:20:00.057Z, 100
2023-04-16T07:22:00.043Z, 100
2023-04-16T07:24:00.044Z, 100
2023-04-16T07:26:00.095Z, 100
2023-04-16T07:28:00.116Z, 100
2023-04-16T07:30:00.142Z, 100
2023-04-16T07:32:00.215Z, 100
2023-04-16T07:34:00.123Z, 100
2023-04-16T07:36:00.154Z, 100
2023-04-16T07:38:00.107Z, 100
2023-04-16T07:40:00.183Z, 100
2023-04-16T07:42:00.125Z, 100
2023-04-16T07:44:00.115Z, 100
2023-04-16T07:46:00.177Z, 100
2023-04-16T07:48:00.247Z, 100
2023-04-16T07:50:00.114Z, 100
2023-04-16T07:52:00.120Z, 100
2023-04-16T07:54:00.136Z, 100
2023-04-16T07:56:00.133Z, 100
2023-04-16T07:58:00.088Z, 100
2023-04-16T08:00:00.094Z, 100
2023-04-16T08:02:00.145Z, 100
2023-04-16T08:04:00.195Z, 100
2023-04-16T08:06:00.071Z, 100
2023-04-16T08:08:00.041Z, 100
2023-04-16T08:10:00.039Z, 100
2023-04-16T08:12:00.065Z, 100
2023-04-16T08:14:00.065Z, 100
2023-04-16T08:16:00.124Z, 100
2023-04-16T08:18:00.100Z, 100
2023-04-16T08:20:00.065Z, 100
2023-04-16T08:22:00.046Z, 100
2023-04-16T08:24:00.112Z, 100
2023-04-16T08:26:00.099Z, 100
2023-04-16T08:28:00.098Z, 100
2023-04-16T08:30:00.171Z, 100
2023-04-16T08:32:00.106Z, 100
2023-04-16T08:34:00.146Z, 100
2023-04-16T08:36:00.156Z, 100
2023-04-16T08:38:02.124Z, 100
2023-04-16T08:40:00.166Z, 100
2023-04-16T08:42:00.136Z, 100
2023-04-16T08:44:00.114Z, 100
2023-04-16T08:46:00.114Z, 100
2023-04-16T08:48:00.180Z, 100
2023-04-16T08:50:00.139Z, 100
2023-04-16T08:52:00.118Z, 100
2023-04-16T08:54:00.130Z, 100
2023-04-16T08:56:00.071Z, 100
2023-04-16T08:58:00.097Z, 100
2023-04-16T09:00:00.100Z, 100
2023-04-16T09:02:00.247Z, 100
2023-04-16T09:04:00.316Z, 100
2023-04-16T09:06:00.060Z, 100
2023-04-16T09:08:00.044Z, 100
2023-04-16T09:10:00.057Z, 100
2023-04-16T09:12:00.046Z, 100
2023-04-16T09:14:00.011Z, 100
2023-04-16T09:16:00.159Z, 100
2023-04-16T09:18:00.154Z, 100
2023-04-16T09:20:00.108Z, 100
2023-04-16T09:22:00.120Z, 100
2023-04-16T09:24:00.140Z, 100
2023-04-16T09:26:00.151Z, 100
2023-04-16T09:28:00.082Z, 100
2023-04-16T09:30:00.141Z, 100
2023-04-16T09:32:00.126Z, 100
2023-04-16T09:34:00.096Z, 100
2023-04-16T09:36:00.123Z, 100
2023-04-16T09:38:00.082Z, 100
2023-04-16T09:40:00.102Z, 100
2023-04-16T09:42:00.105Z, 100
2023-04-16T09:44:00.118Z, 100
2023-04-16T09:46:00.136Z, 100
2023-04-16T09:48:00.165Z, 100
2023-04-16T09:50:00.090Z, 100
2023-04-16T09:52:00.075Z, 100
2023-04-16T09:54:00.106Z, 100
2023-04-16T09:56:00.139Z, 100
2023-04-16T09:58:00.156Z, 100
2023-04-16T10:00:00.128Z, 100
2023-04-16T10:02:15.367Z, 100
2023-04-16T10:04:00.215Z, 100
2023-04-16T10:06:00.137Z, 100
2023-04-16T10:08:00.113Z, 100
2023-04-16T10:10:00.155Z, 100
2023-04-16T10:12:00.122Z, 100
2023-04-16T10:14:00.125Z, 100
2023-04-16T10:16:00.115Z, 100
2023-04-16T10:18:00.137Z, 100
2023-04-16T10:20:00.149Z, 100
2023-04-16T10:22:00.112Z, 100
2023-04-16T10:24:00.119Z, 100
2023-04-16T10:26:00.115Z, 100
2023-04-16T10:28:00.123Z, 100
2023-04-16T10:30:00.083Z, 100
2023-04-16T10:32:00.052Z, 100
2023-04-16T10:34:00.041Z, 99
2023-04-16T10:36:07.502Z, 98.3
2023-04-16T10:37:59.990Z, 98
2023-04-16T10:40:00.009Z, 97.2
2023-04-16T10:42:00.059Z, 95.7
2023-04-16T10:44:00.049Z, 94.9
2023-04-16T10:46:00.113Z, 94.1
2023-04-16T10:48:00.149Z, 94.3
2023-04-16T10:50:00.109Z, 94.1
2023-04-16T10:52:00.055Z, 93
2023-04-16T10:54:00.077Z, 93.1
2023-04-16T10:56:00.114Z, 93.1
2023-04-16T10:58:00.114Z, 92.5
2023-04-16T11:00:00.148Z, 91.7
2023-04-16T11:02:00.238Z, 90.1
2023-04-16T11:04:00.337Z, 91.3
2023-04-16T11:06:00.140Z, 90.8
2023-04-16T11:08:00.133Z, 90.4
2023-04-16T11:10:00.335Z, 89.7
2023-04-16T11:12:00.121Z, 90.1
2023-04-16T11:14:00.131Z, 89
2023-04-16T11:16:00.151Z, 88.4
2023-04-16T11:18:00.208Z, 87.9
2023-04-16T11:20:00.141Z, 88.7
2023-04-16T11:22:00.122Z, 88.8
2023-04-16T11:24:00.113Z, 87.7
2023-04-16T11:26:00.088Z, 87.3
2023-04-16T11:28:00.065Z, 86.4
2023-04-16T11:30:00.080Z, 85.9
2023-04-16T11:32:00.069Z, 85.6
2023-04-16T11:34:00.064Z, 85.2
2023-04-16T11:36:00.093Z, 84.8
2023-04-16T11:38:00.089Z, 84.4
2023-04-16T11:40:00.121Z, 83.2
2023-04-16T11:42:00.124Z, 83.3
2023-04-16T11:44:00.070Z, 84.2
2023-04-16T11:46:00.108Z, 83.1
2023-04-16T11:48:00.170Z, 82
2023-04-16T11:50:00.062Z, 79.5
2023-04-16T11:52:00.063Z, 79.8
2023-04-16T11:54:00.074Z, 79.3
2023-04-16T11:56:00.126Z, 79.2
2023-04-16T11:58:00.097Z, 79.2
2023-04-16T12:00:01.509Z, 79.3
2023-04-16T12:02:00.235Z, 79.4
2023-04-16T12:04:00.423Z, 78.2
2023-04-16T12:06:00.130Z, 78
2023-04-16T12:08:00.164Z, 78
2023-04-16T12:10:00.179Z, 78.3
2023-04-16T12:12:00.138Z, 78.3
2023-04-16T12:14:00.148Z, 80
2023-04-16T12:16:00.116Z, 79.4
2023-04-16T12:18:00.238Z, 79.6
2023-04-16T12:20:00.149Z, 79.4
2023-04-16T12:22:00.131Z, 79.4
2023-04-16T12:24:00.173Z, 80.2
2023-04-16T12:26:00.072Z, 80.2
2023-04-16T12:28:00.049Z, 78.4
2023-04-16T12:30:00.076Z, 77.2
2023-04-16T12:32:00.035Z, 76.7
2023-04-16T12:34:00.057Z, 76.6
2023-04-16T12:36:00.243Z, 75.6
2023-04-16T12:38:00.063Z, 74.4
2023-04-16T12:40:00.089Z, 74.4
2023-04-16T12:42:00.084Z, 75.3
2023-04-16T12:44:00.077Z, 74.8
2023-04-16T12:46:01.674Z, 73.8
2023-04-16T12:48:00.109Z, 73
2023-04-16T12:50:00.076Z, 72.5
2023-04-16T12:52:00.054Z, 70.8
2023-04-16T12:54:00.059Z, 72
2023-04-16T12:56:00.113Z, 72.5
2023-04-16T12:58:00.137Z, 69.6
2023-04-16T13:00:00.166Z, 68.4
2023-04-16T13:02:00.264Z, 70.8
2023-04-16T13:04:00.282Z, 69.4
2023-04-16T13:06:00.137Z, 69.9
2023-04-16T13:08:00.127Z, 68.3
2023-04-16T13:10:00.154Z, 68.9
2023-04-16T13:12:00.132Z, 68.2
2023-04-16T13:14:00.097Z, 67.1
2023-04-16T13:16:00.161Z, 67.2
2023-04-16T13:18:00.137Z, 67.5
2023-04-16T13:20:00.197Z, 66.4
2023-04-16T13:22:00.116Z, 66
2023-04-16T13:24:00.102Z, 66.8
2023-04-16T13:26:00.103Z, 67.2
2023-04-16T13:28:00.091Z, 67.3
2023-04-16T13:30:00.080Z, 68.4
2023-04-16T13:32:00.062Z, 69.4
2023-04-16T13:34:00.084Z, 68.9
2023-04-16T13:36:00.097Z, 70.6
2023-04-16T13:38:00.062Z, 70
2023-04-16T13:40:00.057Z, 68.1
2023-04-16T13:42:00.060Z, 68.2
2023-04-16T13:44:00.052Z, 68.1
2023-04-16T13:46:00.064Z, 66.6
2023-04-16T13:48:00.081Z, 66
2023-04-16T13:50:00.067Z, 65.6
2023-04-16T13:52:00.048Z, 66
2023-04-16T13:54:00.078Z, 66.6
2023-04-16T13:56:00.106Z, 66.5
2023-04-16T13:58:00.104Z, 65.2
2023-04-16T14:00:00.152Z, 65.2
2023-04-16T14:02:00.193Z, 64.9
2023-04-16T14:04:00.196Z, 63.9
2023-04-16T14:06:00.132Z, 65.2
2023-04-16T14:08:00.146Z, 65.7
2023-04-16T14:10:00.218Z, 67.5
2023-04-16T14:12:00.142Z, 68.1
2023-04-16T14:14:00.173Z, 67.5
2023-04-16T14:16:00.146Z, 65.9
2023-04-16T14:18:00.266Z, 65.9
2023-04-16T14:20:00.192Z, 65.9
2023-04-16T14:22:00.137Z, 66.3
2023-04-16T14:24:00.153Z, 67.1
2023-04-16T14:26:00.066Z, 67.1
2023-04-16T14:28:00.052Z, 67.1
2023-04-16T14:30:00.067Z, 67.4
2023-04-16T14:32:00.020Z, 67
2023-04-16T14:34:00.069Z, 67
2023-04-16T14:36:02.565Z, 66.8
2023-04-16T14:38:00.054Z, 67.5
2023-04-16T14:40:00.083Z, 67.8
2023-04-16T14:42:00.050Z, 67.6
2023-04-16T14:44:00.047Z, 68.4
2023-04-16T14:46:00.156Z, 67.8
2023-04-16T14:48:00.112Z, 68.6
2023-04-16T14:50:00.061Z, 68.3
2023-04-16T14:52:00.052Z, 67.3
2023-04-16T14:54:00.064Z, 67.9
2023-04-16T14:56:00.170Z, 68
2023-04-16T14:58:00.145Z, 68
2023-04-16T15:02:00.158Z, 69
2023-04-16T15:04:01.994Z, 68.6
2023-04-16T15:06:00.363Z, 67.7
2023-04-16T15:08:00.119Z, 66.3
2023-04-16T15:10:00.187Z, 66.5
2023-04-16T15:12:00.141Z, 67
2023-04-16T15:14:00.131Z, 67.8
2023-04-16T15:16:00.148Z, 67.9
2023-04-16T15:18:00.310Z, 68.3
2023-04-16T15:20:00.123Z, 68.3
2023-04-16T15:22:00.105Z, 68.8
2023-04-16T15:24:00.135Z, 68.1
2023-04-16T15:26:00.091Z, 68.7
2023-04-16T15:28:00.064Z, 68.3
2023-04-16T15:30:00.167Z, 68.6
2023-04-16T15:32:00.063Z, 68.7
2023-04-16T15:34:00.098Z, 69.2
2023-04-16T15:36:00.113Z, 69.9
2023-04-16T15:38:00.107Z, 69.7
2023-04-16T15:40:00.081Z, 69.8
2023-04-16T15:42:01.831Z, 69.7
2023-04-16T15:44:00.088Z, 69.3
2023-04-16T15:46:00.065Z, 69
2023-04-16T15:48:00.189Z, 69
2023-04-16T15:50:00.091Z, 68.5
2023-04-16T15:52:00.059Z, 68.6
2023-04-16T15:54:00.080Z, 68.5
2023-04-16T15:56:00.086Z, 69.7
2023-04-16T15:58:00.118Z, 69.9
2023-04-16T16:00:07.111Z, 70.3
2023-04-16T16:02:00.181Z, 70.7
2023-04-16T16:04:00.257Z, 70.2
2023-04-16T16:06:00.151Z, 70.5
2023-04-16T16:08:00.114Z, 71.2
2023-04-16T16:10:00.257Z, 71.3
2023-04-16T16:12:00.194Z, 71.5
2023-04-16T16:14:00.117Z, 72
2023-04-16T16:16:00.155Z, 72.6
2023-04-16T16:18:00.212Z, 72.8
2023-04-16T16:20:00.156Z, 72.7
2023-04-16T16:22:00.121Z, 72.5
2023-04-16T16:24:00.161Z, 72.6
2023-04-16T16:26:00.067Z, 72.7
2023-04-16T16:28:00.070Z, 72.2
2023-04-16T16:30:00.101Z, 72.2
2023-04-16T16:32:00.121Z, 72.7
2023-04-16T16:34:00.058Z, 73.3
2023-04-16T16:36:00.063Z, 73.5
2023-04-16T16:38:00.034Z, 73.8
2023-04-16T16:40:00.087Z, 73.4
2023-04-16T16:42:00.085Z, 73.6
2023-04-16T16:44:00.055Z, 73.9
2023-04-16T16:46:00.059Z, 73.9
2023-04-16T16:48:00.112Z, 73.9
2023-04-16T16:50:02.596Z, 74.2
2023-04-16T16:52:00.053Z, 74.3
2023-04-16T16:54:00.063Z, 74.1
2023-04-16T16:56:00.124Z, 74.9
2023-04-16T16:58:00.177Z, 74.8
2023-04-16T17:00:00.214Z, 74.5
2023-04-16T17:02:00.207Z, 74.8
2023-04-16T17:04:00.218Z, 74.9
2023-04-16T17:06:00.138Z, 75
2023-04-16T17:08:00.167Z, 75.2
2023-04-16T17:10:03.057Z, 75.2
2023-04-16T17:12:00.161Z, 74.7
2023-04-16T17:14:00.143Z, 74.4
2023-04-16T17:16:00.148Z, 74.5
2023-04-16T17:18:00.244Z, 75
2023-04-16T17:20:00.194Z, 75.5
2023-04-16T17:22:00.131Z, 75.3
2023-04-16T17:24:00.165Z, 74.8
2023-04-16T17:26:00.067Z, 75
2023-04-16T17:28:00.080Z, 75.3
2023-04-16T17:30:00.130Z, 75.2
2023-04-16T17:32:00.119Z, 75.3
2023-04-16T17:34:00.054Z, 75.2
2023-04-16T17:36:00.045Z, 75.5
2023-04-16T17:38:00.038Z, 75.7
2023-04-16T17:40:00.012Z, 75.5
2023-04-16T17:42:00.090Z, 75.3
2023-04-16T17:44:00.058Z, 74.6
2023-04-16T17:46:00.111Z, 74.6
2023-04-16T17:48:00.112Z, 74.7
2023-04-16T17:50:00.068Z, 75.3
2023-04-16T17:52:00.057Z, 75.5
2023-04-16T17:54:00.063Z, 75.9
2023-04-16T17:56:00.125Z, 75.8
2023-04-16T17:58:00.134Z, 75.7
2023-04-16T18:00:00.270Z, 75.8
2023-04-16T18:02:00.210Z, 75.7
2023-04-16T18:04:00.262Z, 75.1
2023-04-16T18:06:00.119Z, 75.7
2023-04-16T18:08:00.113Z, 76.3
2023-04-16T18:10:00.159Z, 76.8
2023-04-16T18:12:00.119Z, 76.8
2023-04-16T18:14:00.152Z, 76.9
2023-04-16T18:16:00.166Z, 76.7
2023-04-16T18:18:00.182Z, 76.2
2023-04-16T18:20:00.154Z, 75.7
2023-04-16T18:22:00.130Z, 75.8
2023-04-16T18:24:00.173Z, 76
2023-04-16T18:26:00.111Z, 76.2
2023-04-16T18:28:00.054Z, 75.6
2023-04-16T18:30:00.060Z, 75.8
2023-04-16T18:32:00.342Z, 75.8
2023-04-16T18:34:00.129Z, 75.8
2023-04-16T18:36:00.077Z, 76.2
2023-04-16T18:38:00.042Z, 76.3
2023-04-16T18:40:00.045Z, 76.3
2023-04-16T18:42:00.057Z, 76.1
2023-04-16T18:44:00.056Z, 76.9
2023-04-16T18:46:00.050Z, 76.9
2023-04-16T18:48:00.106Z, 77.2
2023-04-16T18:50:00.070Z, 77.3
2023-04-16T18:52:00.056Z, 77
2023-04-16T18:54:00.072Z, 77.4
2023-04-16T18:56:00.087Z, 78.2
2023-04-16T18:58:00.099Z, 77.7
2023-04-16T19:00:00.134Z, 77.8
2023-04-16T19:02:00.190Z, 77.3
2023-04-16T19:04:00.160Z, 77.7
2023-04-16T19:06:00.145Z, 77.5
2023-04-16T19:08:00.099Z, 77.5
2023-04-16T19:10:00.119Z, 77
2023-04-16T19:12:00.150Z, 76.4
2023-04-16T19:14:00.107Z, 76.1
2023-04-16T19:16:00.163Z, 76.1
2023-04-16T19:18:00.163Z, 75.7
2023-04-16T19:20:00.140Z, 75.5
2023-04-16T19:22:00.103Z, 75.2
2023-04-16T19:24:00.150Z, 75.4
2023-04-16T19:26:00.073Z, 75.9
2023-04-16T19:28:00.058Z, 75.5
2023-04-16T19:30:00.083Z, 74.9
2023-04-16T19:32:00.119Z, 74.4
2023-04-16T19:34:00.056Z, 74.3
2023-04-16T19:36:00.066Z, 74.2
2023-04-16T19:38:00.044Z, 74.1
2023-04-16T19:40:00.040Z, 73.5
2023-04-16T19:42:00.044Z, 73.3
2023-04-16T19:44:00.040Z, 73.2
2023-04-16T19:46:00.070Z, 74
2023-04-16T19:48:00.097Z, 73.7
2023-04-16T19:50:00.038Z, 73.3
2023-04-16T19:52:00.042Z, 73.7
2023-04-16T19:54:00.032Z, 73.1
2023-04-16T19:56:00.120Z, 72.8
2023-04-16T19:58:00.148Z, 72.7
2023-04-16T20:00:00.234Z, 72.8
2023-04-16T20:02:00.208Z, 72.9
2023-04-16T20:04:00.166Z, 72.6
2023-04-16T20:06:00.159Z, 72.3
2023-04-16T20:08:00.095Z, 72.5
2023-04-16T20:10:00.133Z, 72.8
2023-04-16T20:12:00.149Z, 73
2023-04-16T20:14:00.110Z, 72.6
2023-04-16T20:16:00.120Z, 72.8
2023-04-16T20:18:00.153Z, 72.6
2023-04-16T20:20:00.179Z, 72.8
2023-04-16T20:22:00.118Z, 73.1
2023-04-16T20:24:00.115Z, 73.2
2023-04-16T20:26:00.067Z, 73.9
2023-04-16T20:28:00.075Z, 74.4
2023-04-16T20:30:00.070Z, 74.6
2023-04-16T20:32:00.058Z, 74.8
2023-04-16T20:34:00.072Z, 75
2023-04-16T20:36:00.055Z, 75
2023-04-16T20:38:00.048Z, 75.1
2023-04-16T20:40:00.027Z, 74.6
2023-04-16T20:42:00.044Z, 75.2
2023-04-16T20:44:00.047Z, 75.6
2023-04-16T20:46:00.086Z, 75.9
2023-04-16T20:48:00.078Z, 76
2023-04-16T20:50:00.042Z, 76
2023-04-16T20:52:00.028Z, 76
2023-04-16T20:54:00.023Z, 75.9
2023-04-16T20:56:00.112Z, 74.8
2023-04-16T20:58:00.132Z, 74.5
2023-04-16T21:00:00.176Z, 74.9
2023-04-16T21:02:00.266Z, 74.5
2023-04-16T21:04:00.321Z, 73.9
2023-04-16T21:06:00.109Z, 74.2
2023-04-16T21:08:00.129Z, 74.3
2023-04-16T21:10:00.184Z, 74.5
2023-04-16T21:12:00.149Z, 74.8
2023-04-16T21:14:00.073Z, 75
2023-04-16T21:16:00.133Z, 75.5
2023-04-16T21:18:00.153Z, 76
2023-04-16T21:20:00.111Z, 76.7
2023-04-16T21:22:00.142Z, 77.2
2023-04-16T21:24:00.136Z, 77.3
2023-04-16T21:26:00.107Z, 77.5
2023-04-16T21:28:00.066Z, 77.9
2023-04-16T21:30:00.090Z, 77.8
2023-04-16T21:32:00.135Z, 77.5
2023-04-16T21:34:00.074Z, 77.4
2023-04-16T21:36:00.108Z, 77
2023-04-16T21:38:00.077Z, 76.6
2023-04-16T21:40:00.098Z, 75.7
2023-04-16T21:42:00.098Z, 75.4
2023-04-16T21:44:00.128Z, 75.4
2023-04-16T21:46:00.133Z, 76.1
2023-04-16T21:48:00.201Z, 75.1
2023-04-16T21:50:00.080Z, 75.4
2023-04-16T21:52:00.098Z, 75.5
2023-04-16T21:54:00.086Z, 75.5
2023-04-16T21:56:00.071Z, 75.6
2023-04-16T21:58:00.075Z, 75.6
2023-04-16T22:00:00.141Z, 75.4
2023-04-16T22:02:00.249Z, 76
2023-04-16T22:04:00.148Z, 75.9
2023-04-16T22:06:00.097Z, 76
2023-04-16T22:08:02.580Z, 76.3
2023-04-16T22:10:00.107Z, 76.5
2023-04-16T22:12:00.100Z, 76.3
2023-04-16T22:14:00.070Z, 76.3
2023-04-16T22:16:00.103Z, 76.2
2023-04-16T22:18:00.135Z, 76.2
2023-04-16T22:20:00.096Z, 76.1
2023-04-16T22:22:00.086Z, 77.4
2023-04-16T22:24:00.110Z, 78.8
2023-04-16T22:26:00.095Z, 79.3
2023-04-16T22:28:00.086Z, 79.3
2023-04-16T22:30:00.125Z, 78.9
2023-04-16T22:32:00.158Z, 78.5
2023-04-16T22:34:02.139Z, 78.2
2023-04-16T22:36:00.118Z, 77.8
2023-04-16T22:38:00.100Z, 77.4
2023-04-16T22:40:00.088Z, 77.6
2023-04-16T22:42:00.134Z, 77.9
2023-04-16T22:44:00.063Z, 78.7
2023-04-16T22:46:00.129Z, 79.4
2023-04-16T22:48:00.178Z, 79.7
2023-04-16T22:50:00.093Z, 80.1
2023-04-16T22:52:00.074Z, 81
2023-04-16T22:54:00.091Z, 81.8
2023-04-16T22:56:00.075Z, 82.9
2023-04-16T22:58:00.073Z, 83.6
2023-04-16T23:00:00.096Z, 83.8
2023-04-16T23:02:00.143Z, 84.2
2023-04-16T23:04:00.185Z, 84.4
2023-04-16T23:06:00.073Z, 84.3
2023-04-16T23:08:00.107Z, 84.4
2023-04-16T23:10:00.084Z, 84.5
2023-04-16T23:12:00.137Z, 84.8
2023-04-16T23:14:00.109Z, 85.1
2023-04-16T23:16:00.083Z, 85.4
2023-04-16T23:18:00.172Z, 85.3
2023-04-16T23:20:00.135Z, 85
2023-04-16T23:22:00.072Z, 84.6
2023-04-16T23:24:00.105Z, 84.1
2023-04-16T23:26:00.086Z, 83.3
2023-04-16T23:28:00.098Z, 83
2023-04-16T23:30:00.115Z, 83.1
2023-04-16T23:32:00.059Z, 83.4
2023-04-16T23:34:00.083Z, 84
2023-04-16T23:36:00.122Z, 84
2023-04-16T23:38:00.070Z, 83.7
2023-04-16T23:40:00.069Z, 82.8
2023-04-16T23:42:00.082Z, 82.2
2023-04-16T23:44:00.077Z, 81.7
2023-04-16T23:46:00.118Z, 81.6
2023-04-16T23:48:00.110Z, 83.7
2023-04-16T23:50:00.125Z, 85.6
2023-04-16T23:52:00.084Z, 86.1
2023-04-16T23:54:00.116Z, 85.6
2023-04-16T23:56:00.078Z, 85.5
2023-04-16T23:58:00.073Z, 85.9
